LDZD/ZAD METAR and TAF weather

Enter ICAO airport designator
Station Type Date Time Source
LDZD METAR 2020/07/14 16:30 UTC NOAA

LDZD 141630Z 29013KT 260V320 CAVOK 25/09 Q1012 NOSIG


Station Type Date Time Source
LDZD Decoded METAR 2020/07/14 16:30 UTC NOAA

Zadar / Zemunik, Croatia (LDZD) 44-06N 015-21E
Jul 14, 2020 - 12:30 PM EDT / 2020.07.14 1630 UTC
Wind: from the WNW (290 degrees) at 15 MPH (13 KT) (direction variable):0
Visibility: greater than 7 mile(s):0
Temperature: 77 F (25 C)
Dew Point: 48 F (9 C)
Relative Humidity: 36%
Pressure (altimeter): 29.88 in. Hg (1012 hPa)
ob: LDZD 141630Z 29013KT 260V320 CAVOK 25/09 Q1012 NOSIG
cycle: 16

Station Type Date Time Source
LDZD TAF 2020/07/14 12:29 UTC NOAA

TAF LDZD 141125Z 1412/1512 28014KT CAVOK TX28/1413Z TN16/1503Z
BECMG 1416/1418 30006KT
BECMG 1420/1422 06006KT
BECMG 1508/1510 25009KT

Example: see airport list